首页
METAR-TAF:

METAR-TAF

机场 :

黃刀鎮, 西北特區, 加拿大

纬度: 62-28N, 经度: 114-27W, 海拔: 205米

当前天气观测

该预报发布于1小时和18分钟前的16:00 UTC
风速10节,风向东转东北
温度 6°C
湿度 75%
气压 1018 hPa
能見度: 24.1公里
多云层高于8600英尺

METAR: CYZF 051600Z 07010KT 15SM BKN086 06/02 A3007 RMK AC7 SLP195

时间: 11:18 (17:18 UTC)

预报

该预报发布于5小时和31分钟前的11:47 UTC
预报有效从05日的 12点(UTC)到 06日的 12点(UTC)
风速10节,风向
能見度: 10公里
多云层高于6000英尺
短暂存在
从 05日的 12点(UTC)到 05日的 16点(UTC)
能見度: 10公里
多云层高于5000英尺
小阵雨
从 05日的 1600点(UTC)
风速10节,风向
能見度: 10公里
散云层高于5000英尺
多云层高于9000英尺
短暂存在
从 05日的 16点(UTC)到 05日的 18点(UTC)
多云层高于5000英尺
多云层高于9000英尺
从 05日的 1800点(UTC)
风速12节,风向东转东南
能見度: 10公里
散云层高于7000英尺
多云层高于12000英尺
短暂存在
从 05日的 18点(UTC)到 06日的 12点(UTC)
多云层高于7000英尺
成为
从 06日的 01点(UTC)到 06日的 03点(UTC)
风速12节,风向

TAF: CYZF 051147Z 0512/0612 08010KT P6SM BKN060 TEMPO 0512/0516 P6SM -SHRA BKN050 FM051600 10010KT P6SM SCT050 BKN090 TEMPO 0516/0518 BKN050 BKN090 FM051800 11012KT P6SM SCT070 BKN120 TEMPO 0518/0612 BKN070 BECMG 0601/0603 08012KT RMK NXT FCST BY 051800Z

超过4000个机场的气象观测和天气预报(METAR&TAF报告)。

可查询的气象台以黄色和红色小点在地图上表示。

将鼠标移到小点上方,可查看气象台名称。

然后点击查看天气观测和预报。

如需切换地图:点击带黑十字的绿色按钮放大地图;点击带横线的绿色按钮缩小地图;或者点击绿色箭头查看邻近地区的地图。


METAR-TAF: